sensor_id;sensor_type;location;lat;lon;timestamp;temperature;humidity
18335;DHT22;9293;49.524;10.964;2023-05-07T00:00:29;13.00;99.90
18335;DHT22;9293;49.524;10.964;2023-05-07T00:02:57;12.90;99.90
18335;DHT22;9293;49.524;10.964;2023-05-07T00:05:26;12.90;99.90
18335;DHT22;9293;49.524;10.964;2023-05-07T00:07:54;12.90;99.90
18335;DHT22;9293;49.524;10.964;2023-05-07T00:10:26;13.00;99.90
18335;DHT22;9293;49.524;10.964;2023-05-07T00:12:56;13.00;99.90
18335;DHT22;9293;49.524;10.964;2023-05-07T00:15:24;13.20;99.90
18335;DHT22;9293;49.524;10.964;2023-05-07T00:17:55;13.30;99.90
18335;DHT22;9293;49.524;10.964;2023-05-07T00:20:23;13.30;99.90
18335;DHT22;9293;49.524;10.964;2023-05-07T00:22:51;13.30;99.90
18335;DHT22;9293;49.524;10.964;2023-05-07T00:25:19;13.30;99.90
18335;DHT22;9293;49.524;10.964;2023-05-07T00:27:47;13.30;99.90
18335;DHT22;9293;49.524;10.964;2023-05-07T00:30:15;13.30;99.90
18335;DHT22;9293;49.524;10.964;2023-05-07T00:32:44;13.30;99.90
18335;DHT22;9293;49.524;10.964;2023-05-07T00:35:13;13.10;99.90
18335;DHT22;9293;49.524;10.964;2023-05-07T00:37:41;13.10;99.90
18335;DHT22;9293;49.524;10.964;2023-05-07T00:40:09;13.20;99.90
18335;DHT22;9293;49.524;10.964;2023-05-07T00:42:38;13.10;99.90
18335;DHT22;9293;49.524;10.964;2023-05-07T00:45:06;13.10;99.90
18335;DHT22;9293;49.524;10.964;2023-05-07T00:47:35;13.00;99.90
18335;DHT22;9293;49.524;10.964;2023-05-07T00:50:04;13.10;99.90
18335;DHT22;9293;49.524;10.964;2023-05-07T00:52:33;13.10;99.90
18335;DHT22;9293;49.524;10.964;2023-05-07T00:55:05;13.20;99.90
18335;DHT22;9293;49.524;10.964;2023-05-07T00:57:36;13.30;99.90
18335;DHT22;9293;49.524;10.964;2023-05-07T01:00:04;13.30;99.90
18335;DHT22;9293;49.524;10.964;2023-05-07T01:02:33;13.40;99.90
18335;DHT22;9293;49.524;10.964;2023-05-07T01:05:01;13.50;99.90
18335;DHT22;9293;49.524;10.964;2023-05-07T01:07:31;13.50;99.90
18335;DHT22;9293;49.524;10.964;2023-05-07T01:10:00;13.50;99.90
18335;DHT22;9293;49.524;10.964;2023-05-07T01:12:28;13.60;99.90
18335;DHT22;9293;49.524;10.964;2023-05-07T01:14:57;13.60;99.90
18335;DHT22;9293;49.524;10.964;2023-05-07T01:17:25;13.60;99.90
18335;DHT22;9293;49.524;10.964;2023-05-07T01:19:54;13.60;99.90
18335;DHT22;9293;49.524;10.964;2023-05-07T01:22:57;13.60;99.90
18335;DHT22;9293;49.524;10.964;2023-05-07T01:25:17;13.70;99.90
18335;DHT22;9293;49.524;10.964;2023-05-07T01:27:49;13.70;99.90
18335;DHT22;9293;49.524;10.964;2023-05-07T01:30:21;13.50;99.90
18335;DHT22;9293;49.524;10.964;2023-05-07T01:32:51;13.40;99.90
18335;DHT22;9293;49.524;10.964;2023-05-07T01:35:20;13.40;99.90
18335;DHT22;9293;49.524;10.964;2023-05-07T01:37:50;13.40;99.90
18335;DHT22;9293;49.524;10.964;2023-05-07T01:40:19;13.50;99.90
18335;DHT22;9293;49.524;10.964;2023-05-07T01:42:47;13.60;99.90
18335;DHT22;9293;49.524;10.964;2023-05-07T01:45:16;13.60;99.90
18335;DHT22;9293;49.524;10.964;2023-05-07T01:47:44;13.60;99.90
18335;DHT22;9293;49.524;10.964;2023-05-07T01:50:12;13.60;99.90
18335;DHT22;9293;49.524;10.964;2023-05-07T01:52:43;13.60;99.90
18335;DHT22;9293;49.524;10.964;2023-05-07T01:55:11;13.60;99.90
18335;DHT22;9293;49.524;10.964;2023-05-07T01:57:40;13.70;99.90
18335;DHT22;9293;49.524;10.964;2023-05-07T02:00:09;13.70;99.90
18335;DHT22;9293;49.524;10.964;2023-05-07T02:02:44;13.70;99.90
18335;DHT22;9293;49.524;10.964;2023-05-07T02:05:27;13.70;99.90
18335;DHT22;9293;49.524;10.964;2023-05-07T02:08:05;13.70;99.90
18335;DHT22;9293;49.524;10.964;2023-05-07T02:10:33;13.70;99.90
18335;DHT22;9293;49.524;10.964;2023-05-07T02:13:04;13.70;99.90
18335;DHT22;9293;49.524;10.964;2023-05-07T02:15:33;13.70;99.90
18335;DHT22;9293;49.524;10.964;2023-05-07T02:18:07;13.70;99.90
18335;DHT22;9293;49.524;10.964;2023-05-07T02:20:36;13.70;99.90
18335;DHT22;9293;49.524;10.964;2023-05-07T02:23:04;13.70;99.90
18335;DHT22;9293;49.524;10.964;2023-05-07T02:25:32;13.70;99.90
18335;DHT22;9293;49.524;10.964;2023-05-07T02:28:00;13.80;99.90
18335;DHT22;9293;49.524;10.964;2023-05-07T02:30:44;13.80;99.90
18335;DHT22;9293;49.524;10.964;2023-05-07T02:33:13;13.80;99.90
18335;DHT22;9293;49.524;10.964;2023-05-07T02:35:41;13.80;99.90
18335;DHT22;9293;49.524;10.964;2023-05-07T02:38:11;13.80;99.90
18335;DHT22;9293;49.524;10.964;2023-05-07T02:40:40;13.80;99.90
18335;DHT22;9293;49.524;10.964;2023-05-07T02:43:08;13.80;99.90
18335;DHT22;9293;49.524;10.964;2023-05-07T02:45:39;13.80;99.90
18335;DHT22;9293;49.524;10.964;2023-05-07T02:48:07;13.80;99.90
18335;DHT22;9293;49.524;10.964;2023-05-07T02:50:36;13.70;99.90
18335;DHT22;9293;49.524;10.964;2023-05-07T02:53:04;13.70;99.90
18335;DHT22;9293;49.524;10.964;2023-05-07T02:55:32;13.70;99.90
18335;DHT22;9293;49.524;10.964;2023-05-07T02:58:00;13.70;99.90
18335;DHT22;9293;49.524;10.964;2023-05-07T03:00:32;13.60;99.90
18335;DHT22;9293;49.524;10.964;2023-05-07T03:03:12;13.60;99.90
18335;DHT22;9293;49.524;10.964;2023-05-07T03:05:40;13.50;99.90
18335;DHT22;9293;49.524;10.964;2023-05-07T03:08:08;13.50;99.90
18335;DHT22;9293;49.524;10.964;2023-05-07T03:10:37;13.40;99.90
18335;DHT22;9293;49.524;10.964;2023-05-07T03:13:05;13.40;99.90
18335;DHT22;9293;49.524;10.964;2023-05-07T03:15:34;13.50;99.90
18335;DHT22;9293;49.524;10.964;2023-05-07T03:18:02;13.50;99.90
18335;DHT22;9293;49.524;10.964;2023-05-07T03:20:30;13.50;99.90
18335;DHT22;9293;49.524;10.964;2023-05-07T03:22:58;13.50;99.90
18335;DHT22;9293;49.524;10.964;2023-05-07T03:25:27;13.50;99.90
18335;DHT22;9293;49.524;10.964;2023-05-07T03:27:55;13.50;99.90
18335;DHT22;9293;49.524;10.964;2023-05-07T03:30:31;13.40;99.90
18335;DHT22;9293;49.524;10.964;2023-05-07T03:32:59;13.30;99.90
18335;DHT22;9293;49.524;10.964;2023-05-07T03:35:27;13.30;99.90
18335;DHT22;9293;49.524;10.964;2023-05-07T03:37:56;13.30;99.90
18335;DHT22;9293;49.524;10.964;2023-05-07T03:40:26;13.20;99.90
18335;DHT22;9293;49.524;10.964;2023-05-07T03:42:55;13.20;99.90
18335;DHT22;9293;49.524;10.964;2023-05-07T03:45:25;13.20;99.90
18335;DHT22;9293;49.524;10.964;2023-05-07T03:48:04;13.10;99.90
18335;DHT22;9293;49.524;10.964;2023-05-07T03:50:32;13.10;99.90
18335;DHT22;9293;49.524;10.964;2023-05-07T03:53:01;13.00;99.90
18335;DHT22;9293;49.524;10.964;2023-05-07T03:55:35;12.90;99.90
18335;DHT22;9293;49.524;10.964;2023-05-07T03:58:04;12.70;99.90
18335;DHT22;9293;49.524;10.964;2023-05-07T04:00:32;12.60;99.90
18335;DHT22;9293;49.524;10.964;2023-05-07T04:03:15;12.50;99.90
18335;DHT22;9293;49.524;10.964;2023-05-07T04:05:43;12.50;99.90
18335;DHT22;9293;49.524;10.964;2023-05-07T04:08:11;12.50;99.90
18335;DHT22;9293;49.524;10.964;2023-05-07T04:10:45;12.60;99.90
18335;DHT22;9293;49.524;10.964;2023-05-07T04:13:13;12.60;99.90
18335;DHT22;9293;49.524;10.964;2023-05-07T04:15:42;12.70;99.90
18335;DHT22;9293;49.524;10.964;2023-05-07T04:18:13;12.70;99.90
18335;DHT22;9293;49.524;10.964;2023-05-07T04:20:43;12.70;99.90
18335;DHT22;9293;49.524;10.964;2023-05-07T04:23:13;12.70;99.90
18335;DHT22;9293;49.524;10.964;2023-05-07T04:25:42;12.70;99.90
18335;DHT22;9293;49.524;10.964;2023-05-07T04:28:19;12.70;99.90
18335;DHT22;9293;49.524;10.964;2023-05-07T04:30:49;12.70;99.90
18335;DHT22;9293;49.524;10.964;2023-05-07T04:33:18;12.80;99.90
18335;DHT22;9293;49.524;10.964;2023-05-07T04:35:48;12.80;99.90
18335;DHT22;9293;49.524;10.964;2023-05-07T04:38:16;12.90;99.90
18335;DHT22;9293;49.524;10.964;2023-05-07T04:40:49;13.00;99.90
18335;DHT22;9293;49.524;10.964;2023-05-07T04:43:21;13.00;99.90
18335;DHT22;9293;49.524;10.964;2023-05-07T04:45:51;13.10;99.90
18335;DHT22;9293;49.524;10.964;2023-05-07T04:48:23;13.20;99.90
18335;DHT22;9293;49.524;10.964;2023-05-07T04:50:52;13.30;99.90
18335;DHT22;9293;49.524;10.964;2023-05-07T04:53:24;13.30;99.90
18335;DHT22;9293;49.524;10.964;2023-05-07T04:55:55;13.30;99.90
18335;DHT22;9293;49.524;10.964;2023-05-07T04:58:30;13.40;99.90
18335;DHT22;9293;49.524;10.964;2023-05-07T05:00:59;13.40;99.90
18335;DHT22;9293;49.524;10.964;2023-05-07T05:03:28;13.50;99.90
18335;DHT22;9293;49.524;10.964;2023-05-07T05:05:58;13.60;99.90
18335;DHT22;9293;49.524;10.964;2023-05-07T05:08:31;13.70;99.90
18335;DHT22;9293;49.524;10.964;2023-05-07T05:11:01;13.80;99.90
18335;DHT22;9293;49.524;10.964;2023-05-07T05:13:32;13.90;99.90
18335;DHT22;9293;49.524;10.964;2023-05-07T05:16:08;14.10;99.90
18335;DHT22;9293;49.524;10.964;2023-05-07T05:18:39;14.20;99.90
18335;DHT22;9293;49.524;10.964;2023-05-07T05:21:10;14.30;99.90
18335;DHT22;9293;49.524;10.964;2023-05-07T05:23:40;14.30;99.90
18335;DHT22;9293;49.524;10.964;2023-05-07T05:26:08;14.40;99.90
18335;DHT22;9293;49.524;10.964;2023-05-07T05:28:36;14.60;99.90
18335;DHT22;9293;49.524;10.964;2023-05-07T05:31:04;14.50;99.90
18335;DHT22;9293;49.524;10.964;2023-05-07T05:33:35;14.50;99.90
18335;DHT22;9293;49.524;10.964;2023-05-07T05:36:04;14.50;99.90
18335;DHT22;9293;49.524;10.964;2023-05-07T05:38:33;14.60;99.90
18335;DHT22;9293;49.524;10.964;2023-05-07T05:41:01;14.50;99.90
18335;DHT22;9293;49.524;10.964;2023-05-07T05:43:30;14.50;99.90
18335;DHT22;9293;49.524;10.964;2023-05-07T05:45:58;14.60;99.90
18335;DHT22;9293;49.524;10.964;2023-05-07T05:48:28;14.50;99.90
18335;DHT22;9293;49.524;10.964;2023-05-07T05:51:02;14.60;99.90
18335;DHT22;9293;49.524;10.964;2023-05-07T05:53:30;14.60;99.90
18335;DHT22;9293;49.524;10.964;2023-05-07T05:55:58;14.50;99.90
18335;DHT22;9293;49.524;10.964;2023-05-07T05:58:28;14.60;99.90
18335;DHT22;9293;49.524;10.964;2023-05-07T06:01:00;14.70;99.90
18335;DHT22;9293;49.524;10.964;2023-05-07T06:03:30;14.90;99.90
18335;DHT22;9293;49.524;10.964;2023-05-07T06:06:04;14.90;99.90
18335;DHT22;9293;49.524;10.964;2023-05-07T06:08:32;15.00;99.90
18335;DHT22;9293;49.524;10.964;2023-05-07T06:11:02;15.20;99.90
18335;DHT22;9293;49.524;10.964;2023-05-07T06:13:34;15.50;99.90
18335;DHT22;9293;49.524;10.964;2023-05-07T06:16:02;15.80;99.90
18335;DHT22;9293;49.524;10.964;2023-05-07T06:18:31;15.90;99.90
18335;DHT22;9293;49.524;10.964;2023-05-07T06:20:59;15.80;99.90
18335;DHT22;9293;49.524;10.964;2023-05-07T06:23:30;15.80;99.90
18335;DHT22;9293;49.524;10.964;2023-05-07T06:25:59;15.90;99.90
18335;DHT22;9293;49.524;10.964;2023-05-07T06:28:33;16.00;99.90
18335;DHT22;9293;49.524;10.964;2023-05-07T06:31:12;16.00;99.90
18335;DHT22;9293;49.524;10.964;2023-05-07T06:33:44;16.20;99.90
18335;DHT22;9293;49.524;10.964;2023-05-07T06:36:13;16.30;99.90
18335;DHT22;9293;49.524;10.964;2023-05-07T06:38:42;16.50;99.90
18335;DHT22;9293;49.524;10.964;2023-05-07T06:41:10;16.50;99.90
18335;DHT22;9293;49.524;10.964;2023-05-07T06:43:41;16.60;99.90
18335;DHT22;9293;49.524;10.964;2023-05-07T06:46:45;16.60;99.90
18335;DHT22;9293;49.524;10.964;2023-05-07T06:49:14;16.60;99.90
18335;DHT22;9293;49.524;10.964;2023-05-07T06:51:42;16.60;99.90
18335;DHT22;9293;49.524;10.964;2023-05-07T06:54:10;16.50;99.90
18335;DHT22;9293;49.524;10.964;2023-05-07T06:56:40;16.50;99.90
18335;DHT22;9293;49.524;10.964;2023-05-07T06:59:08;16.60;99.90
18335;DHT22;9293;49.524;10.964;2023-05-07T07:01:39;16.80;99.90
18335;DHT22;9293;49.524;10.964;2023-05-07T07:04:09;17.00;99.90
18335;DHT22;9293;49.524;10.964;2023-05-07T07:06:39;17.20;99.90
18335;DHT22;9293;49.524;10.964;2023-05-07T07:09:10;17.30;99.90
18335;DHT22;9293;49.524;10.964;2023-05-07T07:11:40;17.40;99.90
18335;DHT22;9293;49.524;10.964;2023-05-07T07:14:08;17.50;99.90
18335;DHT22;9293;49.524;10.964;2023-05-07T07:16:43;17.60;99.90
18335;DHT22;9293;49.524;10.964;2023-05-07T07:19:12;17.60;99.90
18335;DHT22;9293;49.524;10.964;2023-05-07T07:21:40;17.70;99.90
18335;DHT22;9293;49.524;10.964;2023-05-07T07:24:13;18.00;99.90
18335;DHT22;9293;49.524;10.964;2023-05-07T07:26:50;18.30;99.90
18335;DHT22;9293;49.524;10.964;2023-05-07T07:29:19;18.50;99.90
18335;DHT22;9293;49.524;10.964;2023-05-07T07:31:48;18.80;99.90
18335;DHT22;9293;49.524;10.964;2023-05-07T07:34:19;19.00;99.90
18335;DHT22;9293;49.524;10.964;2023-05-07T07:36:48;19.00;99.90
18335;DHT22;9293;49.524;10.964;2023-05-07T07:39:18;18.80;99.90
18335;DHT22;9293;49.524;10.964;2023-05-07T07:41:49;18.60;99.90
18335;DHT22;9293;49.524;10.964;2023-05-07T07:44:19;18.50;99.90
18335;DHT22;9293;49.524;10.964;2023-05-07T07:46:52;18.70;99.90
18335;DHT22;9293;49.524;10.964;2023-05-07T07:49:23;18.90;99.90
18335;DHT22;9293;49.524;10.964;2023-05-07T07:51:51;18.90;99.90
18335;DHT22;9293;49.524;10.964;2023-05-07T07:54:20;18.60;99.90
18335;DHT22;9293;49.524;10.964;2023-05-07T07:56:48;18.60;99.90
18335;DHT22;9293;49.524;10.964;2023-05-07T07:59:17;18.60;99.90
18335;DHT22;9293;49.524;10.964;2023-05-07T08:01:48;18.70;99.90
18335;DHT22;9293;49.524;10.964;2023-05-07T08:04:22;18.90;99.90
18335;DHT22;9293;49.524;10.964;2023-05-07T08:06:51;19.00;99.90
18335;DHT22;9293;49.524;10.964;2023-05-07T08:09:19;18.80;99.90
18335;DHT22;9293;49.524;10.964;2023-05-07T08:11:52;18.80;99.90
18335;DHT22;9293;49.524;10.964;2023-05-07T08:14:21;18.90;99.90
18335;DHT22;9293;49.524;10.964;2023-05-07T08:16:54;19.10;99.90
18335;DHT22;9293;49.524;10.964;2023-05-07T08:19:22;19.30;99.90
18335;DHT22;9293;49.524;10.964;2023-05-07T08:21:52;19.40;99.90
18335;DHT22;9293;49.524;10.964;2023-05-07T08:24:22;19.70;99.90
18335;DHT22;9293;49.524;10.964;2023-05-07T08:26:51;19.90;99.90
18335;DHT22;9293;49.524;10.964;2023-05-07T08:29:21;20.10;99.90
18335;DHT22;9293;49.524;10.964;2023-05-07T08:31:49;20.30;99.90
18335;DHT22;9293;49.524;10.964;2023-05-07T08:34:17;20.30;99.90
18335;DHT22;9293;49.524;10.964;2023-05-07T08:36:48;20.40;99.90
18335;DHT22;9293;49.524;10.964;2023-05-07T08:39:20;20.40;99.90
18335;DHT22;9293;49.524;10.964;2023-05-07T08:41:52;20.40;99.90
18335;DHT22;9293;49.524;10.964;2023-05-07T08:44:23;20.50;99.90
18335;DHT22;9293;49.524;10.964;2023-05-07T08:46:56;20.80;99.90
18335;DHT22;9293;49.524;10.964;2023-05-07T08:49:25;21.10;99.90
18335;DHT22;9293;49.524;10.964;2023-05-07T08:51:53;21.40;99.90
18335;DHT22;9293;49.524;10.964;2023-05-07T08:54:24;21.90;99.90
18335;DHT22;9293;49.524;10.964;2023-05-07T08:56:53;22.30;99.90
18335;DHT22;9293;49.524;10.964;2023-05-07T08:59:21;22.30;99.90
18335;DHT22;9293;49.524;10.964;2023-05-07T09:01:50;22.30;99.90
18335;DHT22;9293;49.524;10.964;2023-05-07T09:04:18;22.10;99.90
18335;DHT22;9293;49.524;10.964;2023-05-07T09:06:47;21.90;99.90
18335;DHT22;9293;49.524;10.964;2023-05-07T09:09:16;22.00;99.90
18335;DHT22;9293;49.524;10.964;2023-05-07T09:11:46;22.30;99.90
18335;DHT22;9293;49.524;10.964;2023-05-07T09:14:18;22.60;99.90
18335;DHT22;9293;49.524;10.964;2023-05-07T09:16:51;22.70;99.90
18335;DHT22;9293;49.524;10.964;2023-05-07T09:19:25;23.00;99.90
18335;DHT22;9293;49.524;10.964;2023-05-07T09:22:00;22.90;99.90
18335;DHT22;9293;49.524;10.964;2023-05-07T09:24:36;22.70;99.90
18335;DHT22;9293;49.524;10.964;2023-05-07T09:27:09;22.60;99.90
18335;DHT22;9293;49.524;10.964;2023-05-07T09:29:43;22.50;99.90
18335;DHT22;9293;49.524;10.964;2023-05-07T09:32:13;22.70;99.90
18335;DHT22;9293;49.524;10.964;2023-05-07T09:34:42;23.10;99.90
18335;DHT22;9293;49.524;10.964;2023-05-07T09:37:12;23.30;99.90
18335;DHT22;9293;49.524;10.964;2023-05-07T09:39:41;23.70;99.90
18335;DHT22;9293;49.524;10.964;2023-05-07T09:42:10;23.90;99.90
18335;DHT22;9293;49.524;10.964;2023-05-07T09:44:39;23.90;99.90
18335;DHT22;9293;49.524;10.964;2023-05-07T09:47:11;23.70;99.90
18335;DHT22;9293;49.524;10.964;2023-05-07T09:49:52;24.10;99.90
18335;DHT22;9293;49.524;10.964;2023-05-07T09:52:24;24.40;99.90
18335;DHT22;9293;49.524;10.964;2023-05-07T09:54:54;24.50;99.90
18335;DHT22;9293;49.524;10.964;2023-05-07T09:57:26;24.50;99.90
18335;DHT22;9293;49.524;10.964;2023-05-07T09:59:59;24.10;99.90
18335;DHT22;9293;49.524;10.964;2023-05-07T10:02:31;23.90;99.90
18335;DHT22;9293;49.524;10.964;2023-05-07T10:05:03;24.10;99.90
18335;DHT22;9293;49.524;10.964;2023-05-07T10:07:33;24.20;99.90
18335;DHT22;9293;49.524;10.964;2023-05-07T10:10:10;24.40;99.90
18335;DHT22;9293;49.524;10.964;2023-05-07T10:12:42;24.60;99.90
18335;DHT22;9293;49.524;10.964;2023-05-07T10:15:17;25.00;99.90
18335;DHT22;9293;49.524;10.964;2023-05-07T10:21:35;25.50;99.90
18335;DHT22;9293;49.524;10.964;2023-05-07T10:24:12;25.30;99.90
18335;DHT22;9293;49.524;10.964;2023-05-07T10:26:43;24.90;99.90
18335;DHT22;9293;49.524;10.964;2023-05-07T10:34:24;25.70;99.90
18335;DHT22;9293;49.524;10.964;2023-05-07T10:36:54;25.30;99.90
18335;DHT22;9293;49.524;10.964;2023-05-07T10:39:24;25.50;99.90
18335;DHT22;9293;49.524;10.964;2023-05-07T10:42:56;25.40;99.90
18335;DHT22;9293;49.524;10.964;2023-05-07T11:14:34;25.60;99.90
18335;DHT22;9293;49.524;10.964;2023-05-07T11:17:08;25.50;99.90
18335;DHT22;9293;49.524;10.964;2023-05-07T11:19:53;25.40;99.90
18335;DHT22;9293;49.524;10.964;2023-05-07T11:22:40;25.70;99.90
18335;DHT22;9293;49.524;10.964;2023-05-07T11:25:27;25.80;99.90
18335;DHT22;9293;49.524;10.964;2023-05-07T11:28:05;25.80;99.90
18335;DHT22;9293;49.524;10.964;2023-05-07T11:30:34;25.80;99.90
18335;DHT22;9293;49.524;10.964;2023-05-07T11:33:05;26.10;99.90
18335;DHT22;9293;49.524;10.964;2023-05-07T11:35:33;25.80;99.90
18335;DHT22;9293;49.524;10.964;2023-05-07T11:38:07;25.80;99.90
18335;DHT22;9293;49.524;10.964;2023-05-07T11:40:42;25.60;99.90
18335;DHT22;9293;49.524;10.964;2023-05-07T11:43:16;25.60;99.90
18335;DHT22;9293;49.524;10.964;2023-05-07T11:45:47;26.00;99.90
18335;DHT22;9293;49.524;10.964;2023-05-07T11:48:16;25.40;99.90
18335;DHT22;9293;49.524;10.964;2023-05-07T11:53:19;24.90;99.90
18335;DHT22;9293;49.524;10.964;2023-05-07T11:55:47;24.70;99.90
18335;DHT22;9293;49.524;10.964;2023-05-07T11:58:20;24.50;99.90
18335;DHT22;9293;49.524;10.964;2023-05-07T12:00:51;24.70;99.90
18335;DHT22;9293;49.524;10.964;2023-05-07T12:03:23;24.70;99.90
18335;DHT22;9293;49.524;10.964;2023-05-07T12:06:10;25.00;99.90
18335;DHT22;9293;49.524;10.964;2023-05-07T12:23:22;25.30;99.90
18335;DHT22;9293;49.524;10.964;2023-05-07T12:25:50;25.70;99.90
18335;DHT22;9293;49.524;10.964;2023-05-07T12:28:19;25.60;99.90
18335;DHT22;9293;49.524;10.964;2023-05-07T12:30:52;25.30;99.90
18335;DHT22;9293;49.524;10.964;2023-05-07T12:37:29;25.10;99.90
18335;DHT22;9293;49.524;10.964;2023-05-07T13:05:31;24.80;99.90
18335;DHT22;9293;49.524;10.964;2023-05-07T13:18:52;25.60;99.90
18335;DHT22;9293;49.524;10.964;2023-05-07T13:21:21;25.40;99.90
18335;DHT22;9293;49.524;10.964;2023-05-07T13:23:49;25.40;99.90
18335;DHT22;9293;49.524;10.964;2023-05-07T13:26:18;25.30;99.90
18335;DHT22;9293;49.524;10.964;2023-05-07T13:28:53;25.60;99.90
18335;DHT22;9293;49.524;10.964;2023-05-07T13:38:06;26.20;99.90
18335;DHT22;9293;49.524;10.964;2023-05-07T13:40:34;26.30;99.90
18335;DHT22;9293;49.524;10.964;2023-05-07T13:43:02;26.50;99.90
18335;DHT22;9293;49.524;10.964;2023-05-07T13:45:30;26.50;99.90
18335;DHT22;9293;49.524;10.964;2023-05-07T13:47:59;26.30;99.90
18335;DHT22;9293;49.524;10.964;2023-05-07T13:50:27;26.10;99.90
18335;DHT22;9293;49.524;10.964;2023-05-07T13:52:57;26.00;99.90
18335;DHT22;9293;49.524;10.964;2023-05-07T13:55:29;26.10;99.90
18335;DHT22;9293;49.524;10.964;2023-05-07T13:57:57;26.10;99.90
18335;DHT22;9293;49.524;10.964;2023-05-07T14:00:26;26.00;99.90
18335;DHT22;9293;49.524;10.964;2023-05-07T14:02:55;25.60;99.90
18335;DHT22;9293;49.524;10.964;2023-05-07T14:05:23;25.60;99.90
18335;DHT22;9293;49.524;10.964;2023-05-07T14:07:52;25.30;99.90
18335;DHT22;9293;49.524;10.964;2023-05-07T14:10:20;25.10;99.90
18335;DHT22;9293;49.524;10.964;2023-05-07T14:12:48;25.00;99.90
18335;DHT22;9293;49.524;10.964;2023-05-07T14:15:16;25.30;99.90
18335;DHT22;9293;49.524;10.964;2023-05-07T14:17:44;25.60;99.90
18335;DHT22;9293;49.524;10.964;2023-05-07T14:20:12;25.80;99.90
18335;DHT22;9293;49.524;10.964;2023-05-07T14:22:41;25.50;99.90
18335;DHT22;9293;49.524;10.964;2023-05-07T14:25:09;25.50;99.90
18335;DHT22;9293;49.524;10.964;2023-05-07T14:27:43;25.20;99.90
18335;DHT22;9293;49.524;10.964;2023-05-07T14:30:11;25.00;99.90
18335;DHT22;9293;49.524;10.964;2023-05-07T14:32:39;24.90;99.90
18335;DHT22;9293;49.524;10.964;2023-05-07T14:35:08;24.80;99.90
18335;DHT22;9293;49.524;10.964;2023-05-07T14:37:36;24.70;99.90
18335;DHT22;9293;49.524;10.964;2023-05-07T14:40:05;24.60;99.90
18335;DHT22;9293;49.524;10.964;2023-05-07T14:42:33;24.60;99.90
18335;DHT22;9293;49.524;10.964;2023-05-07T14:45:01;24.70;99.90
18335;DHT22;9293;49.524;10.964;2023-05-07T14:47:32;24.70;99.90
18335;DHT22;9293;49.524;10.964;2023-05-07T14:50:04;24.70;99.90
18335;DHT22;9293;49.524;10.964;2023-05-07T14:52:34;24.70;99.90
18335;DHT22;9293;49.524;10.964;2023-05-07T14:55:02;24.60;99.90
18335;DHT22;9293;49.524;10.964;2023-05-07T14:57:30;24.70;99.90
18335;DHT22;9293;49.524;10.964;2023-05-07T15:00:03;24.60;99.90
18335;DHT22;9293;49.524;10.964;2023-05-07T15:02:32;24.70;99.90
18335;DHT22;9293;49.524;10.964;2023-05-07T15:05:00;24.90;99.90
18335;DHT22;9293;49.524;10.964;2023-05-07T15:07:29;24.90;99.90
18335;DHT22;9293;49.524;10.964;2023-05-07T15:09:57;24.70;99.90
18335;DHT22;9293;49.524;10.964;2023-05-07T15:12:25;24.60;99.90
18335;DHT22;9293;49.524;10.964;2023-05-07T15:14:53;24.60;99.90
18335;DHT22;9293;49.524;10.964;2023-05-07T15:17:21;24.70;99.90
18335;DHT22;9293;49.524;10.964;2023-05-07T15:19:49;24.50;99.90
18335;DHT22;9293;49.524;10.964;2023-05-07T15:22:20;24.70;99.90
18335;DHT22;9293;49.524;10.964;2023-05-07T15:24:49;24.80;99.90
18335;DHT22;9293;49.524;10.964;2023-05-07T15:27:17;24.90;99.90
18335;DHT22;9293;49.524;10.964;2023-05-07T15:29:45;24.90;99.90
18335;DHT22;9293;49.524;10.964;2023-05-07T15:32:13;24.90;99.90
18335;DHT22;9293;49.524;10.964;2023-05-07T15:34:41;24.70;99.90
18335;DHT22;9293;49.524;10.964;2023-05-07T15:37:10;24.50;99.90
18335;DHT22;9293;49.524;10.964;2023-05-07T15:39:38;24.20;99.90
18335;DHT22;9293;49.524;10.964;2023-05-07T15:42:07;24.00;99.90
18335;DHT22;9293;49.524;10.964;2023-05-07T15:44:35;23.90;99.90
18335;DHT22;9293;49.524;10.964;2023-05-07T15:47:03;23.70;99.90
18335;DHT22;9293;49.524;10.964;2023-05-07T15:49:31;23.70;99.90
18335;DHT22;9293;49.524;10.964;2023-05-07T15:51:59;23.60;99.90
18335;DHT22;9293;49.524;10.964;2023-05-07T15:54:29;23.40;99.90
18335;DHT22;9293;49.524;10.964;2023-05-07T15:56:57;23.30;99.90
18335;DHT22;9293;49.524;10.964;2023-05-07T15:59:25;23.20;99.90
18335;DHT22;9293;49.524;10.964;2023-05-07T16:01:53;23.20;99.90
18335;DHT22;9293;49.524;10.964;2023-05-07T16:04:22;23.20;99.90
18335;DHT22;9293;49.524;10.964;2023-05-07T16:06:50;23.10;99.90
18335;DHT22;9293;49.524;10.964;2023-05-07T16:09:18;23.00;99.90
18335;DHT22;9293;49.524;10.964;2023-05-07T16:11:46;23.00;99.90
18335;DHT22;9293;49.524;10.964;2023-05-07T16:14:14;23.00;99.90
18335;DHT22;9293;49.524;10.964;2023-05-07T16:16:42;22.90;99.90
18335;DHT22;9293;49.524;10.964;2023-05-07T16:19:11;22.80;99.90
18335;DHT22;9293;49.524;10.964;2023-05-07T16:21:39;22.70;99.90
18335;DHT22;9293;49.524;10.964;2023-05-07T16:24:07;22.60;99.90
18335;DHT22;9293;49.524;10.964;2023-05-07T16:26:38;22.60;99.90
18335;DHT22;9293;49.524;10.964;2023-05-07T16:29:06;22.60;99.90
18335;DHT22;9293;49.524;10.964;2023-05-07T16:31:35;22.70;99.90
18335;DHT22;9293;49.524;10.964;2023-05-07T16:34:07;22.70;99.90
18335;DHT22;9293;49.524;10.964;2023-05-07T16:36:37;22.70;99.90
18335;DHT22;9293;49.524;10.964;2023-05-07T16:39:05;22.60;99.90
18335;DHT22;9293;49.524;10.964;2023-05-07T16:41:33;22.60;99.90
18335;DHT22;9293;49.524;10.964;2023-05-07T16:44:04;22.50;99.90
18335;DHT22;9293;49.524;10.964;2023-05-07T16:46:32;22.50;99.90
18335;DHT22;9293;49.524;10.964;2023-05-07T16:49:00;22.40;99.90
18335;DHT22;9293;49.524;10.964;2023-05-07T16:51:28;22.40;99.90
18335;DHT22;9293;49.524;10.964;2023-05-07T16:53:56;22.30;99.90
18335;DHT22;9293;49.524;10.964;2023-05-07T16:56:24;22.30;99.90
18335;DHT22;9293;49.524;10.964;2023-05-07T16:58:54;22.20;99.90
18335;DHT22;9293;49.524;10.964;2023-05-07T17:01:22;22.10;99.90
18335;DHT22;9293;49.524;10.964;2023-05-07T17:03:50;22.10;99.90
18335;DHT22;9293;49.524;10.964;2023-05-07T17:06:18;22.10;99.90
18335;DHT22;9293;49.524;10.964;2023-05-07T17:08:47;22.00;99.90
18335;DHT22;9293;49.524;10.964;2023-05-07T17:11:15;21.80;99.90
18335;DHT22;9293;49.524;10.964;2023-05-07T17:13:45;21.80;99.90
18335;DHT22;9293;49.524;10.964;2023-05-07T17:16:17;21.70;99.90
18335;DHT22;9293;49.524;10.964;2023-05-07T17:18:47;21.60;99.90
18335;DHT22;9293;49.524;10.964;2023-05-07T17:21:18;21.40;99.90
18335;DHT22;9293;49.524;10.964;2023-05-07T17:23:46;21.40;99.90
18335;DHT22;9293;49.524;10.964;2023-05-07T17:26:15;21.30;99.90
18335;DHT22;9293;49.524;10.964;2023-05-07T17:28:44;21.20;99.90
18335;DHT22;9293;49.524;10.964;2023-05-07T17:31:12;21.20;99.90